Grand River, Ohio
Current Conditions -  °F | °C
As of 3:15 AM on Monday 26 Jan 2015 (Local Time) from KLNN Reporting Station
Overcast Overcast  
Wind Chill:   Ceiling: 3500
Heat Index: 19°   Visibility: 4mi
Dew Point: 13°   Wind: 13mph
Humidity: 78%   Direction: 90°E
Pressure: 29.86"   Gusts: NA
Location:  41.74°N, 81.28°W
Report Text: KLNN 260815Z AUTO 09011KT 4SM OVC035 M07/M10 A2986 RMK AO1 T10721105
Loading
Personal Weather Stations






























Interactive Weather Map New forecast layout! Learn more

10-Day Weather Forecast

Advertisements
Track Severe Weather on mobile